Time;durP1;ratioP1;P1;durP2;ratioP2;P2;SDS_P1;SDS_P2;PMS_P1;PMS_P2;Temp;Humidity;BMP_temperature;BMP_pressure;BME280_temperature;BME280_humidity;BME280_pressure;Samples;Min_cycle;Max_cycle;Signal;HPM_P1;HPM_P2
2022/11/12 00:01:21;;;;;;;;;;;11.60;99.90;;;;;;5067429;28;20348;-74
2022/11/12 00:03:47;;;;;;;;;;;11.60;99.90;;;;;;5070218;28;19916;-74
2022/11/12 00:06:12;;;;;;;;;;;11.60;99.90;;;;;;5069665;28;20007;-74
2022/11/12 00:08:38;;;;;;;;;;;11.60;99.90;;;;;;5068377;28;19912;-74
2022/11/12 00:11:04;;;;;;;;;;;11.50;99.90;;;;;;5069527;28;19998;-74
2022/11/12 00:13:29;;;;;;;;;;;11.50;99.90;;;;;;5070014;28;19926;-74
2022/11/12 00:15:55;;;;;;;;;;;11.50;99.90;;;;;;5069889;28;19920;-74
2022/11/12 00:18:21;;;;;;;;;;;11.40;99.90;;;;;;5067970;28;19924;-75
2022/11/12 00:20:46;;;;;;;;;;;11.50;99.90;;;;;;5069851;28;19917;-74
2022/11/12 00:23:12;;;;;;;;;;;11.40;99.90;;;;;;5069346;28;20004;-75
2022/11/12 00:25:38;;;;;;;;;;;11.50;99.90;;;;;;5073072;28;19927;-75
2022/11/12 00:28:04;;;;;;;;;;;11.50;99.90;;;;;;5069571;28;19916;-75
2022/11/12 00:30:30;;;;;;;;;;;11.50;99.90;;;;;;5066386;28;19923;-74
2022/11/12 00:32:56;;;;;;;;;;;11.40;99.90;;;;;;5068379;28;20331;-75
2022/11/12 00:35:21;;;;;;;;;;;11.40;99.90;;;;;;5069479;28;19916;-75
2022/11/12 00:37:47;;;;;;;;;;;11.50;99.90;;;;;;5068326;28;20493;-75
2022/11/12 00:40:12;;;;;;;;;;;11.60;99.90;;;;;;5069339;28;20000;-75
2022/11/12 00:42:38;;;;;;;;;;;11.50;99.90;;;;;;5068981;28;19912;-74
2022/11/12 00:45:03;;;;;;;;;;;11.30;99.90;;;;;;5069191;28;19922;-75
2022/11/12 00:47:29;;;;;;;;;;;11.40;99.90;;;;;;5068865;28;19944;-75
2022/11/12 00:49:54;;;;;;;;;;;11.40;99.90;;;;;;5068958;28;19927;-74
2022/11/12 00:52:20;;;;;;;;;;;11.40;99.90;;;;;;5067251;28;19917;-75
2022/11/12 00:54:45;;;;;;;;;;;11.30;99.90;;;;;;5068060;28;19920;-75
2022/11/12 00:57:11;;;;;;;;;;;11.30;99.90;;;;;;5068471;28;20002;-74
2022/11/12 00:59:36;;;;;;;;;;;11.30;99.90;;;;;;5067363;28;20415;-74
2022/11/12 01:02:02;;;;;;;;;;;11.30;99.90;;;;;;5066167;28;20372;-74
2022/11/12 01:04:27;;;;;;;;;;;11.30;99.90;;;;;;5068099;28;20581;-75
2022/11/12 01:06:53;;;;;;;;;;;11.20;99.90;;;;;;5068147;28;20401;-74
2022/11/12 01:09:18;;;;;;;;;;;11.20;99.90;;;;;;5067680;28;20036;-74
2022/11/12 01:11:44;;;;;;;;;;;11.10;99.90;;;;;;5067915;28;20399;-74
2022/11/12 01:14:09;;;;;;;;;;;11.10;99.90;;;;;;5066545;28;19921;-74
2022/11/12 01:16:38;;;;;;;;;;;10.90;99.90;;;;;;5094763;28;20301;-75
2022/11/12 01:19:05;;;;;;;;;;;11.10;99.90;;;;;;5067786;28;19919;-75
2022/11/12 01:21:31;;;;;;;;;;;10.90;99.90;;;;;;5065894;28;19924;-74
2022/11/12 01:23:57;;;;;;;;;;;11.00;99.90;;;;;;5068377;28;19923;-74
2022/11/12 01:26:24;;;;;;;;;;;10.90;99.90;;;;;;5065109;28;19916;-75
2022/11/12 01:28:50;;;;;;;;;;;10.90;99.90;;;;;;5067926;28;19923;-74
2022/11/12 01:31:17;;;;;;;;;;;10.90;99.90;;;;;;5063865;28;19921;-74
2022/11/12 01:33:43;;;;;;;;;;;11.00;99.90;;;;;;5068080;28;19920;-75
2022/11/12 01:36:09;;;;;;;;;;;10.90;99.90;;;;;;5068241;28;19934;-74
2022/11/12 01:38:35;;;;;;;;;;;10.90;99.90;;;;;;5066815;28;20563;-74
2022/11/12 01:41:01;;;;;;;;;;;10.90;99.90;;;;;;5070157;28;19916;-73
2022/11/12 01:43:26;;;;;;;;;;;10.80;99.90;;;;;;5067967;28;19942;-74
2022/11/12 01:45:52;;;;;;;;;;;10.90;99.90;;;;;;5066003;28;19939;-75
2022/11/12 01:48:24;;;;;;;;;;;10.90;99.90;;;;;;5067879;28;20358;-74
2022/11/12 01:50:49;;;;;;;;;;;10.80;99.90;;;;;;5066584;28;20403;-74
2022/11/12 01:53:15;;;;;;;;;;;10.70;99.90;;;;;;5063080;28;20376;-75
2022/11/12 01:55:40;;;;;;;;;;;10.70;99.90;;;;;;5067273;28;19923;-75
2022/11/12 01:58:09;;;;;;;;;;;10.80;99.90;;;;;;5065766;28;21180;-75
2022/11/12 02:00:34;;;;;;;;;;;10.80;99.90;;;;;;5067492;28;20522;-75
2022/11/12 02:03:01;;;;;;;;;;;10.80;99.90;;;;;;5058041;28;20006;-74
2022/11/12 02:05:27;;;;;;;;;;;10.80;99.90;;;;;;5066268;28;19939;-74
2022/11/12 02:07:53;;;;;;;;;;;10.80;99.90;;;;;;5064879;28;19916;-73
2022/11/12 02:10:19;;;;;;;;;;;10.70;99.90;;;;;;5066755;28;19916;-74
2022/11/12 02:15:29;;;;;;;;;;;10.70;99.90;;;;;;5066308;28;19994;-74
2022/11/12 02:17:55;;;;;;;;;;;10.70;99.90;;;;;;5067416;28;19927;-75
2022/11/12 02:20:20;;;;;;;;;;;10.80;99.90;;;;;;5066744;28;19956;-75
2022/11/12 02:22:46;;;;;;;;;;;10.70;99.90;;;;;;5066958;28;19917;-75
2022/11/12 02:25:13;;;;;;;;;;;10.70;99.90;;;;;;5060379;28;19939;-74
2022/11/12 02:27:38;;;;;;;;;;;10.70;99.90;;;;;;5063463;28;20796;-75
2022/11/12 02:30:04;;;;;;;;;;;10.70;99.90;;;;;;5060536;28;19917;-74
2022/11/12 02:32:30;;;;;;;;;;;10.70;99.90;;;;;;5064019;28;20291;-75
2022/11/12 02:34:55;;;;;;;;;;;10.70;99.90;;;;;;5067185;28;19955;-74
2022/11/12 02:37:21;;;;;;;;;;;10.80;99.90;;;;;;5066735;28;19967;-75
2022/11/12 02:39:46;;;;;;;;;;;10.80;99.90;;;;;;5064547;28;19972;-75
2022/11/12 02:42:12;;;;;;;;;;;10.80;99.90;;;;;;5065186;28;19954;-74
2022/11/12 02:44:37;;;;;;;;;;;10.70;99.90;;;;;;5065601;28;20011;-74
2022/11/12 02:47:03;;;;;;;;;;;10.70;99.90;;;;;;5066908;28;19925;-75
2022/11/12 02:49:28;;;;;;;;;;;10.60;99.90;;;;;;5067089;28;19916;-74
2022/11/12 02:51:54;;;;;;;;;;;10.70;99.90;;;;;;5063915;28;19924;-74
2022/11/12 02:54:19;;;;;;;;;;;10.70;99.90;;;;;;5067925;28;20841;-75
2022/11/12 02:56:45;;;;;;;;;;;10.70;99.90;;;;;;5068890;28;19925;-74
2022/11/12 02:59:10;;;;;;;;;;;10.50;99.90;;;;;;5066534;28;19916;-74
2022/11/12 03:01:36;;;;;;;;;;;10.50;99.90;;;;;;5064035;28;19964;-75
2022/11/12 03:04:01;;;;;;;;;;;10.50;99.90;;;;;;5061957;28;20027;-75
2022/11/12 03:06:27;;;;;;;;;;;10.50;99.90;;;;;;5066797;28;19930;-75
2022/11/12 03:08:52;;;;;;;;;;;10.50;99.90;;;;;;5066934;28;20023;-75
2022/11/12 03:11:18;;;;;;;;;;;10.50;99.90;;;;;;5065409;28;20515;-75
2022/11/12 03:13:43;;;;;;;;;;;10.60;99.90;;;;;;5065715;28;20471;-75
2022/11/12 03:16:09;;;;;;;;;;;10.60;99.90;;;;;;5068456;28;19923;-74
2022/11/12 03:18:34;;;;;;;;;;;10.50;99.90;;;;;;5070236;28;19927;-75
2022/11/12 03:21:00;;;;;;;;;;;10.40;99.90;;;;;;5070263;28;19923;-75
2022/11/12 03:23:26;;;;;;;;;;;10.50;99.90;;;;;;5070770;28;19916;-74
2022/11/12 03:25:51;;;;;;;;;;;10.60;99.90;;;;;;5070533;28;19916;-75
2022/11/12 03:28:17;;;;;;;;;;;10.70;99.90;;;;;;5070143;28;19985;-75
2022/11/12 03:30:43;;;;;;;;;;;10.60;99.90;;;;;;5070068;28;19974;-75
2022/11/12 03:33:09;;;;;;;;;;;10.50;99.90;;;;;;5065235;28;19924;-74
2022/11/12 03:35:35;;;;;;;;;;;10.60;99.90;;;;;;5069783;28;19924;-74
2022/11/12 03:38:01;;;;;;;;;;;10.60;99.90;;;;;;5063538;28;20424;-74
2022/11/12 03:40:27;;;;;;;;;;;10.50;99.90;;;;;;5065388;28;19923;-75
2022/11/12 03:42:53;;;;;;;;;;;10.40;99.90;;;;;;5068114;28;20589;-75
2022/11/12 03:45:19;;;;;;;;;;;10.40;99.90;;;;;;5063781;28;19920;-75
2022/11/12 03:47:46;;;;;;;;;;;10.50;99.90;;;;;;5067930;28;19916;-75
2022/11/12 03:50:12;;;;;;;;;;;10.40;99.90;;;;;;5067372;28;20436;-75
2022/11/12 03:52:38;;;;;;;;;;;10.40;99.90;;;;;;5066842;28;20493;-75
2022/11/12 03:55:04;;;;;;;;;;;10.30;99.90;;;;;;5068532;28;19916;-74
2022/11/12 03:57:30;;;;;;;;;;;10.10;99.90;;;;;;5069788;28;20730;-74
2022/11/12 03:59:56;;;;;;;;;;;10.20;99.90;;;;;;5069220;28;20345;-74
2022/11/12 04:02:21;;;;;;;;;;;10.00;99.90;;;;;;5065452;28;20481;-74
2022/11/12 04:10:15;;;;;;;;;;;10.00;99.90;;;;;;5066546;28;20560;-74
2022/11/12 04:15:25;;;;;;;;;;;10.20;99.90;;;;;;5069603;28;20608;-75
2022/11/12 04:23:19;;;;;;;;;;;10.00;99.90;;;;;;5068342;28;19962;-74
2022/11/12 04:28:28;;;;;;;;;;;9.80;99.90;;;;;;5069450;28;19962;-74
2022/11/12 04:30:54;;;;;;;;;;;9.70;99.90;;;;;;5068171;28;19917;-74
2022/11/12 04:33:19;;;;;;;;;;;9.80;99.90;;;;;;5068431;28;19920;-74
2022/11/12 04:35:45;;;;;;;;;;;9.80;99.90;;;;;;5067198;28;19921;-75
2022/11/12 04:38:10;;;;;;;;;;;9.70;99.90;;;;;;5068939;28;19916;-75
2022/11/12 04:46:05;;;;;;;;;;;9.70;99.90;;;;;;5068006;28;20382;-75
2022/11/12 04:48:30;;;;;;;;;;;9.60;99.90;;;;;;5068719;28;19921;-74
2022/11/12 04:51:01;;;;;;;;;;;9.60;99.90;;;;;;5068756;28;19920;-74
2022/11/12 04:53:28;;;;;;;;;;;9.70;99.90;;;;;;5068521;28;20019;-73
2022/11/12 04:55:54;;;;;;;;;;;9.70;99.90;;;;;;5068792;28;19974;-74
2022/11/12 04:58:20;;;;;;;;;;;9.80;99.90;;;;;;5068773;28;19922;-73
2022/11/12 05:00:46;;;;;;;;;;;9.90;99.90;;;;;;5068748;28;19921;-75
2022/11/12 05:03:11;;;;;;;;;;;9.80;99.90;;;;;;5067257;28;19923;-74
2022/11/12 05:05:37;;;;;;;;;;;9.70;99.90;;;;;;5069316;28;19925;-74
2022/11/12 05:08:02;;;;;;;;;;;9.70;99.90;;;;;;5069067;28;19913;-75
2022/11/12 05:10:29;;;;;;;;;;;9.70;99.90;;;;;;5068428;28;19920;-75
2022/11/12 05:12:54;;;;;;;;;;;9.70;99.90;;;;;;5068512;28;19928;-75
2022/11/12 05:15:20;;;;;;;;;;;9.70;99.90;;;;;;5068780;28;19917;-74
2022/11/12 05:17:45;;;;;;;;;;;9.70;99.90;;;;;;5068700;28;19920;-75
2022/11/12 05:20:12;;;;;;;;;;;9.60;99.90;;;;;;5068509;28;19917;-75
2022/11/12 05:22:37;;;;;;;;;;;9.60;99.90;;;;;;5064524;28;20049;-75
2022/11/12 05:25:03;;;;;;;;;;;9.60;99.90;;;;;;5067730;28;19998;-74
2022/11/12 05:27:29;;;;;;;;;;;9.50;99.90;;;;;;5066164;28;19956;-75
2022/11/12 05:29:54;;;;;;;;;;;9.50;99.90;;;;;;5064545;28;19916;-75
2022/11/12 05:32:20;;;;;;;;;;;9.50;99.90;;;;;;5066289;28;20459;-75
2022/11/12 05:34:45;;;;;;;;;;;9.50;99.90;;;;;;5065841;28;19924;-75
2022/11/12 05:37:12;;;;;;;;;;;9.50;99.90;;;;;;5067531;28;19921;-75
2022/11/12 05:39:37;;;;;;;;;;;9.60;99.90;;;;;;5065286;28;19917;-75
2022/11/12 05:42:04;;;;;;;;;;;9.50;99.90;;;;;;5066888;28;19920;-75
2022/11/12 05:44:29;;;;;;;;;;;9.50;99.90;;;;;;5067911;28;19995;-75
2022/11/12 05:46:55;;;;;;;;;;;9.50;99.90;;;;;;5067511;28;19948;-74
2022/11/12 05:49:20;;;;;;;;;;;9.50;99.90;;;;;;5067676;28;19959;-75
2022/11/12 05:51:46;;;;;;;;;;;9.50;99.90;;;;;;5067788;28;20521;-74
2022/11/12 05:54:11;;;;;;;;;;;9.50;99.90;;;;;;5067262;28;19924;-74
2022/11/12 05:56:37;;;;;;;;;;;9.60;99.90;;;;;;5067587;28;19916;-75
2022/11/12 05:59:04;;;;;;;;;;;9.60;99.90;;;;;;5067892;28;20003;-73
2022/11/12 06:01:29;;;;;;;;;;;9.50;99.90;;;;;;5066892;28;19917;-74
2022/11/12 06:03:55;;;;;;;;;;;9.60;99.90;;;;;;5066002;28;19974;-75
2022/11/12 06:06:20;;;;;;;;;;;9.60;99.90;;;;;;5067253;28;19925;-75
2022/11/12 06:08:46;;;;;;;;;;;9.50;99.90;;;;;;5066720;28;19944;-74
2022/11/12 06:11:11;;;;;;;;;;;9.50;99.90;;;;;;5064260;28;19917;-74
2022/11/12 06:13:37;;;;;;;;;;;9.60;99.90;;;;;;5067083;28;20007;-73
2022/11/12 06:16:02;;;;;;;;;;;9.50;99.90;;;;;;5066458;28;19912;-74
2022/11/12 06:18:28;;;;;;;;;;;9.40;99.90;;;;;;5067675;28;19912;-75
2022/11/12 06:23:43;;;;;;;;;;;9.20;99.90;;;;;;5067820;28;19922;-74
2022/11/12 06:26:09;;;;;;;;;;;9.20;99.90;;;;;;5061372;28;19917;-75
2022/11/12 06:28:34;;;;;;;;;;;9.20;99.90;;;;;;5066041;28;19968;-74
2022/11/12 06:31:00;;;;;;;;;;;9.30;99.90;;;;;;5066029;28;20437;-76
2022/11/12 06:33:26;;;;;;;;;;;9.20;99.90;;;;;;5066531;28;19924;-78
2022/11/12 06:36:01;;;;;;;;;;;9.10;99.90;;;;;;5067476;28;20027;-77
2022/11/12 06:38:34;;;;;;;;;;;9.10;99.90;;;;;;5067538;28;19931;-77
2022/11/12 06:40:59;;;;;;;;;;;9.10;99.90;;;;;;5066584;28;19951;-77
2022/11/12 06:43:26;;;;;;;;;;;9.10;99.90;;;;;;5066749;28;19917;-78
2022/11/12 06:45:52;;;;;;;;;;;9.10;99.90;;;;;;5066696;28;19923;-77
2022/11/12 06:48:17;;;;;;;;;;;9.00;99.90;;;;;;5066238;28;19916;-77
2022/11/12 06:50:43;;;;;;;;;;;9.10;99.90;;;;;;5065736;28;19917;-78
2022/11/12 06:53:08;;;;;;;;;;;9.00;99.90;;;;;;5066937;28;19924;-77
2022/11/12 06:55:34;;;;;;;;;;;9.10;99.90;;;;;;5067169;28;19921;-77
2022/11/12 06:58:00;;;;;;;;;;;9.10;99.90;;;;;;5065236;28;20007;-77
2022/11/12 07:00:26;;;;;;;;;;;9.30;99.90;;;;;;5067012;28;19920;-77
2022/11/12 07:02:51;;;;;;;;;;;9.40;99.90;;;;;;5066190;28;20494;-77
2022/11/12 07:05:17;;;;;;;;;;;9.40;99.90;;;;;;5065789;28;20466;-77
2022/11/12 07:07:42;;;;;;;;;;;9.30;99.90;;;;;;5063461;28;19920;-78
2022/11/12 07:10:08;;;;;;;;;;;9.30;99.90;;;;;;5070462;28;19948;-79
2022/11/12 07:12:33;;;;;;;;;;;9.40;99.90;;;;;;5067122;28;19912;-78
2022/11/12 07:14:59;;;;;;;;;;;9.60;99.90;;;;;;5063075;28;19921;-78
2022/11/12 07:17:24;;;;;;;;;;;10.10;99.90;;;;;;5065527;28;20023;-78
2022/11/12 07:19:50;;;;;;;;;;;10.40;99.90;;;;;;5067080;28;19993;-78
2022/11/12 07:22:15;;;;;;;;;;;10.50;99.90;;;;;;5067432;28;19966;-79
2022/11/12 07:24:41;;;;;;;;;;;10.50;99.90;;;;;;5066274;28;20035;-78
2022/11/12 07:27:06;;;;;;;;;;;10.10;99.90;;;;;;5064390;28;19924;-78
2022/11/12 07:29:32;;;;;;;;;;;10.10;99.90;;;;;;5063878;28;19923;-79
2022/11/12 07:31:57;;;;;;;;;;;10.00;99.90;;;;;;5059138;28;20010;-77
2022/11/12 07:34:23;;;;;;;;;;;9.80;99.90;;;;;;5067648;28;19959;-75
2022/11/12 07:36:50;;;;;;;;;;;10.00;99.90;;;;;;5063526;28;19999;-75
2022/11/12 07:39:16;;;;;;;;;;;10.20;99.90;;;;;;5065260;28;20234;-75
2022/11/12 07:41:42;;;;;;;;;;;10.50;99.90;;;;;;5066448;28;19923;-75
2022/11/12 07:44:08;;;;;;;;;;;10.70;99.90;;;;;;5066795;28;19916;-76
2022/11/12 07:46:33;;;;;;;;;;;10.80;99.90;;;;;;5066412;28;19916;-75
2022/11/12 07:48:59;;;;;;;;;;;10.80;99.90;;;;;;5066443;28;19916;-75
2022/11/12 07:51:25;;;;;;;;;;;10.90;99.90;;;;;;5063094;28;19920;-75
2022/11/12 07:53:55;;;;;;;;;;;10.90;99.90;;;;;;5065068;28;19921;-74
2022/11/12 07:56:21;;;;;;;;;;;11.00;99.90;;;;;;5063635;28;19916;-75
2022/11/12 07:58:49;;;;;;;;;;;10.90;99.90;;;;;;5064478;28;19916;-75
2022/11/12 08:01:26;;;;;;;;;;;11.00;99.90;;;;;;5066782;28;19916;-75
2022/11/12 08:03:52;;;;;;;;;;;11.20;99.90;;;;;;5068597;28;20717;-75
2022/11/12 08:06:18;;;;;;;;;;;11.40;99.90;;;;;;5065274;28;20075;-74
2022/11/12 08:08:43;;;;;;;;;;;11.50;99.90;;;;;;5061965;28;20398;-76
2022/11/12 08:11:09;;;;;;;;;;;11.50;99.90;;;;;;5061198;28;20000;-75
2022/11/12 08:13:34;;;;;;;;;;;11.30;99.90;;;;;;5057267;28;19921;-75
2022/11/12 08:16:00;;;;;;;;;;;11.40;99.90;;;;;;5057292;28;20015;-75
2022/11/12 08:18:26;;;;;;;;;;;11.40;99.90;;;;;;5062698;28;20011;-76
2022/11/12 08:20:51;;;;;;;;;;;11.30;99.90;;;;;;5064711;28;19916;-74
2022/11/12 08:23:17;;;;;;;;;;;11.30;99.90;;;;;;5064756;28;19934;-75
2022/11/12 08:25:42;;;;;;;;;;;11.50;99.90;;;;;;5053900;28;19981;-75
2022/11/12 08:28:08;;;;;;;;;;;11.30;99.90;;;;;;5051154;28;19978;-75
2022/11/12 08:30:34;;;;;;;;;;;11.30;99.90;;;;;;5065391;28;19913;-75
2022/11/12 08:33:01;;;;;;;;;;;11.40;99.90;;;;;;5065161;28;19938;-79
2022/11/12 08:35:27;;;;;;;;;;;11.40;99.90;;;;;;5065087;28;20482;-75
2022/11/12 08:37:56;;;;;;;;;;;11.70;99.90;;;;;;5063952;28;19916;-75
2022/11/12 08:40:22;;;;;;;;;;;11.80;99.90;;;;;;5058996;28;19928;-76
2022/11/12 08:42:48;;;;;;;;;;;11.80;99.90;;;;;;5062350;28;20396;-75
2022/11/12 08:45:13;;;;;;;;;;;11.80;99.90;;;;;;5064015;28;19916;-76
2022/11/12 08:47:39;;;;;;;;;;;12.00;99.90;;;;;;5060578;28;20019;-75
2022/11/12 08:50:04;;;;;;;;;;;11.90;99.90;;;;;;5067475;28;19927;-75
2022/11/12 08:52:30;;;;;;;;;;;12.10;99.90;;;;;;5065598;28;20234;-75
2022/11/12 08:54:55;;;;;;;;;;;12.20;99.90;;;;;;5063782;28;20018;-75
2022/11/12 08:57:21;;;;;;;;;;;12.20;99.90;;;;;;5065284;28;19947;-76
2022/11/12 08:59:47;;;;;;;;;;;12.30;99.90;;;;;;5057038;28;20023;-76
2022/11/12 09:02:12;;;;;;;;;;;12.30;99.90;;;;;;5050483;28;19962;-76
2022/11/12 09:04:38;;;;;;;;;;;12.40;99.90;;;;;;5051924;28;19985;-76
2022/11/12 09:07:03;;;;;;;;;;;12.50;99.90;;;;;;5056588;28;19927;-75
2022/11/12 09:09:29;;;;;;;;;;;12.70;99.90;;;;;;5051568;28;20432;-75
2022/11/12 09:11:54;;;;;;;;;;;13.00;99.90;;;;;;5063716;28;19980;-76
2022/11/12 09:14:20;;;;;;;;;;;13.20;99.90;;;;;;5051484;28;19980;-76
2022/11/12 09:16:46;;;;;;;;;;;13.50;99.90;;;;;;5055247;28;19921;-76
2022/11/12 09:19:11;;;;;;;;;;;13.40;99.90;;;;;;5053400;28;19913;-76
2022/11/12 09:21:37;;;;;;;;;;;13.40;99.90;;;;;;5050236;28;19927;-76
2022/11/12 09:24:02;;;;;;;;;;;13.40;99.90;;;;;;5050800;28;19976;-76
2022/11/12 09:26:28;;;;;;;;;;;13.40;99.90;;;;;;5052286;28;19912;-76
2022/11/12 09:28:53;;;;;;;;;;;13.50;99.90;;;;;;5053725;28;20698;-75
2022/11/12 09:31:19;;;;;;;;;;;13.70;99.90;;;;;;5062420;28;20316;-75
2022/11/12 09:33:44;;;;;;;;;;;13.80;99.90;;;;;;5055900;28;19959;-75
2022/11/12 09:36:10;;;;;;;;;;;14.10;99.90;;;;;;5067712;28;19912;-75
2022/11/12 09:38:36;;;;;;;;;;;14.20;99.90;;;;;;5068352;28;19916;-76
2022/11/12 09:41:10;;;;;;;;;;;14.10;99.90;;;;;;5068529;28;19955;-75
2022/11/12 09:43:57;;;;;;;;;;;14.20;99.90;;;;;;5066064;28;19923;-75
2022/11/12 09:46:23;;;;;;;;;;;14.30;99.90;;;;;;5067753;28;19912;-76
2022/11/12 09:48:52;;;;;;;;;;;14.50;99.90;;;;;;5068536;28;20015;-75
2022/11/12 09:51:24;;;;;;;;;;;14.70;99.90;;;;;;5068168;28;19917;-76
2022/11/12 09:54:12;;;;;;;;;;;14.80;99.90;;;;;;5066855;28;19916;-76
2022/11/12 09:56:38;;;;;;;;;;;14.80;99.90;;;;;;5067723;28;20434;-76
2022/11/12 09:59:08;;;;;;;;;;;14.90;99.90;;;;;;5068114;28;20392;-75
2022/11/12 10:01:39;;;;;;;;;;;15.00;99.90;;;;;;5068084;28;19913;-76
2022/11/12 10:04:20;;;;;;;;;;;15.00;99.90;;;;;;5068217;28;19965;-76
2022/11/12 10:06:54;;;;;;;;;;;15.10;99.90;;;;;;5067618;28;19949;-76
2022/11/12 10:09:22;;;;;;;;;;;15.10;99.90;;;;;;5068408;28;19908;-77
2022/11/12 10:14:32;;;;;;;;;;;15.20;99.90;;;;;;5068135;28;20442;-76
2022/11/12 10:17:09;;;;;;;;;;;15.40;99.90;;;;;;5066511;28;19913;-76
2022/11/12 10:19:41;;;;;;;;;;;15.30;99.90;;;;;;5068133;28;19970;-76
2022/11/12 10:22:31;;;;;;;;;;;15.40;99.90;;;;;;5068510;28;20688;-76
2022/11/12 10:24:58;;;;;;;;;;;15.40;99.90;;;;;;5066172;28;19935;-76
2022/11/12 10:27:27;;;;;;;;;;;15.30;99.90;;;;;;5067726;28;19916;-76
2022/11/12 10:29:56;;;;;;;;;;;15.30;99.90;;;;;;5065000;28;20447;-77
2022/11/12 10:32:21;;;;;;;;;;;15.20;99.90;;;;;;5060893;28;19972;-76
2022/11/12 10:34:47;;;;;;;;;;;15.20;99.90;;;;;;5065493;28;20335;-76
2022/11/12 10:37:15;;;;;;;;;;;15.20;99.90;;;;;;5067433;28;19919;-76
2022/11/12 10:39:42;;;;;;;;;;;15.10;99.90;;;;;;5056540;28;19916;-76
2022/11/12 10:42:13;;;;;;;;;;;15.10;99.90;;;;;;5068047;28;19921;-76
2022/11/12 10:44:39;;;;;;;;;;;15.00;99.90;;;;;;5067707;28;19944;-75
2022/11/12 10:47:19;;;;;;;;;;;15.10;99.90;;;;;;5067665;28;19951;-76
2022/11/12 10:50:21;;;;;;;;;;;15.20;99.90;;;;;;5067441;28;19912;-76
2022/11/12 10:53:05;;;;;;;;;;;15.10;99.90;;;;;;5031508;28;19921;-75
2022/11/12 10:55:33;;;;;;;;;;;15.20;99.90;;;;;;5065551;28;19995;-75
2022/11/12 10:58:10;;;;;;;;;;;15.30;99.90;;;;;;5066007;28;19926;-75
2022/11/12 11:00:38;;;;;;;;;;;15.50;99.90;;;;;;5066181;28;20676;-75
2022/11/12 11:03:05;;;;;;;;;;;15.50;99.90;;;;;;5067641;28;19912;-75
2022/11/12 11:05:47;;;;;;;;;;;15.50;99.90;;;;;;5067762;28;19924;-75
2022/11/12 11:08:12;;;;;;;;;;;15.60;99.90;;;;;;5056237;28;20387;-76
2022/11/12 11:10:38;;;;;;;;;;;15.70;99.90;;;;;;5060662;28;19935;-77
2022/11/12 11:13:20;;;;;;;;;;;15.80;99.90;;;;;;5061513;28;19958;-76
2022/11/12 11:16:12;;;;;;;;;;;15.90;99.90;;;;;;5059870;28;19916;-77
2022/11/12 11:18:39;;;;;;;;;;;15.90;99.90;;;;;;5050692;28;20038;-77
2022/11/12 11:21:13;;;;;;;;;;;16.10;99.90;;;;;;5051613;28;19980;-77
2022/11/12 11:23:49;;;;;;;;;;;16.20;99.90;;;;;;5053621;28;20654;-78
2022/11/12 11:26:33;;;;;;;;;;;16.10;99.90;;;;;;5064174;28;20058;-77
2022/11/12 11:29:06;;;;;;;;;;;16.20;99.90;;;;;;5060084;28;19927;-78
2022/11/12 11:31:38;;;;;;;;;;;16.20;99.90;;;;;;5050983;28;19932;-77
2022/11/12 11:34:11;;;;;;;;;;;16.20;99.90;;;;;;5047616;28;19928;-77
2022/11/12 11:36:43;;;;;;;;;;;16.30;99.90;;;;;;5055414;28;19913;-76
2022/11/12 11:39:21;;;;;;;;;;;16.30;99.90;;;;;;5065275;28;20311;-77
2022/11/12 11:41:51;;;;;;;;;;;16.30;99.90;;;;;;5062322;28;19920;-77
2022/11/12 11:44:32;;;;;;;;;;;16.30;99.90;;;;;;5063395;28;19924;-76
2022/11/12 11:47:03;;;;;;;;;;;16.30;99.90;;;;;;5068013;28;19923;-77
2022/11/12 11:49:38;;;;;;;;;;;16.40;99.90;;;;;;5053923;28;19916;-76
2022/11/12 11:52:06;;;;;;;;;;;16.40;99.90;;;;;;5070576;28;19928;-78
2022/11/12 11:54:45;;;;;;;;;;;16.50;99.90;;;;;;5070101;28;19960;-77
2022/11/12 11:57:14;;;;;;;;;;;16.60;99.90;;;;;;5068381;28;20765;-77
2022/11/12 12:00:09;;;;;;;;;;;16.60;99.90;;;;;;5070205;28;19916;-76
2022/11/12 12:02:35;;;;;;;;;;;16.70;99.90;;;;;;5062113;28;19924;-76
2022/11/12 12:05:09;;;;;;;;;;;16.60;99.90;;;;;;5070062;28;19921;-76
2022/11/12 12:07:41;;;;;;;;;;;16.60;99.90;;;;;;5070669;28;19912;-76
2022/11/12 12:10:20;;;;;;;;;;;16.60;99.90;;;;;;5069632;28;20638;-76
2022/11/12 12:12:46;;;;;;;;;;;16.60;99.90;;;;;;5063351;28;19927;-76
2022/11/12 12:15:47;;;;;;;;;;;16.70;99.90;;;;;;5066617;28;20015;-75
2022/11/12 12:18:30;;;;;;;;;;;16.60;99.90;;;;;;5011480;28;19917;-77
2022/11/12 12:21:06;;;;;;;;;;;16.50;99.90;;;;;;5053360;28;19920;-77
2022/11/12 12:23:47;;;;;;;;;;;16.40;99.90;;;;;;5055999;28;19917;-76
2022/11/12 12:26:14;;;;;;;;;;;16.40;99.90;;;;;;5056401;28;20270;-78
2022/11/12 12:28:50;;;;;;;;;;;16.40;99.90;;;;;;5067025;28;19913;-78
2022/11/12 12:31:17;;;;;;;;;;;16.50;99.90;;;;;;5061161;28;19916;-79
2022/11/12 12:33:50;;;;;;;;;;;16.50;99.90;;;;;;5056393;28;19931;-78
2022/11/12 12:36:34;;;;;;;;;;;16.60;99.90;;;;;;5050415;28;20308;-78
2022/11/12 12:39:05;;;;;;;;;;;16.60;99.90;;;;;;5053507;28;19916;-77
2022/11/12 12:41:37;;;;;;;;;;;16.70;99.90;;;;;;5056500;28;19917;-78
2022/11/12 12:44:04;;;;;;;;;;;16.80;99.90;;;;;;5054457;28;19962;-79
2022/11/12 12:46:30;;;;;;;;;;;16.90;99.90;;;;;;5053632;28;19913;-78
2022/11/12 12:48:57;;;;;;;;;;;16.90;99.90;;;;;;5057836;28;19921;-79
2022/11/12 12:51:23;;;;;;;;;;;16.70;99.90;;;;;;5052428;28;19927;-78
2022/11/12 12:53:49;;;;;;;;;;;16.80;99.90;;;;;;5048646;28;19920;-79
2022/11/12 12:56:21;;;;;;;;;;;16.90;99.90;;;;;;5050198;28;20398;-78
2022/11/12 12:58:47;;;;;;;;;;;17.00;99.90;;;;;;5050463;28;19943;-77
2022/11/12 13:01:21;;;;;;;;;;;16.90;99.90;;;;;;5052995;28;19917;-78
2022/11/12 13:04:02;;;;;;;;;;;17.10;99.90;;;;;;5055635;28;19921;-79
2022/11/12 13:06:45;;;;;;;;;;;17.10;99.90;;;;;;5059534;28;20387;-77
2022/11/12 13:09:11;;;;;;;;;;;16.90;99.90;;;;;;5052691;28;20415;-76
2022/11/12 13:14:30;;;;;;;;;;;17.20;99.90;;;;;;5057585;28;20388;-75
2022/11/12 13:16:59;;;;;;;;;;;17.20;99.90;;;;;;5056916;28;19920;-75
2022/11/12 13:19:26;;;;;;;;;;;17.20;99.90;;;;;;5062142;28;19917;-75
2022/11/12 13:22:11;;;;;;;;;;;17.30;99.90;;;;;;5053025;28;19917;-75
2022/11/12 13:24:56;;;;;;;;;;;17.30;99.90;;;;;;5050339;28;19913;-75
2022/11/12 13:27:54;;;;;;;;;;;17.30;99.90;;;;;;5049737;28;19920;-75
2022/11/12 13:30:25;;;;;;;;;;;17.30;99.90;;;;;;5046055;28;20049;-75
2022/11/12 13:32:51;;;;;;;;;;;17.30;99.90;;;;;;5053158;28;19920;-75
2022/11/12 13:35:30;;;;;;;;;;;17.20;99.90;;;;;;5050713;28;19917;-75
2022/11/12 13:37:56;;;;;;;;;;;17.30;99.90;;;;;;5081929;28;19928;-75
2022/11/12 13:40:40;;;;;;;;;;;17.50;99.90;;;;;;5048946;28;19917;-75
2022/11/12 13:43:12;;;;;;;;;;;17.50;99.90;;;;;;5049737;28;19993;-75
2022/11/12 13:45:40;;;;;;;;;;;17.50;99.90;;;;;;5063650;28;20363;-75
2022/11/12 13:48:06;;;;;;;;;;;17.60;99.90;;;;;;5064588;28;19922;-75
2022/11/12 13:50:32;;;;;;;;;;;17.30;99.90;;;;;;5066720;28;19919;-75
2022/11/12 13:52:58;;;;;;;;;;;17.10;99.90;;;;;;5066833;28;19912;-75
2022/11/12 13:55:23;;;;;;;;;;;17.30;99.90;;;;;;5065357;28;20296;-75
2022/11/12 13:57:53;;;;;;;;;;;17.50;99.90;;;;;;5063823;28;19912;-75
2022/11/12 14:00:19;;;;;;;;;;;17.50;99.50;;;;;;5063168;28;19912;-75
2022/11/12 14:02:47;;;;;;;;;;;17.50;99.70;;;;;;5066233;28;19962;-74
2022/11/12 14:05:15;;;;;;;;;;;17.50;99.90;;;;;;5054441;28;19924;-75
2022/11/12 14:07:40;;;;;;;;;;;17.60;99.50;;;;;;5066648;28;20557;-75
2022/11/12 14:10:06;;;;;;;;;;;17.50;99.90;;;;;;5066080;28;19917;-75
2022/11/12 14:12:50;;;;;;;;;;;17.40;99.90;;;;;;5064511;28;20097;-75
2022/11/12 14:15:22;;;;;;;;;;;17.50;98.70;;;;;;5055672;28;20439;-75
2022/11/12 14:18:04;;;;;;;;;;;17.50;99.20;;;;;;5064650;28;19935;-75
2022/11/12 14:20:35;;;;;;;;;;;17.40;99.50;;;;;;5069474;28;19921;-75
2022/11/12 14:23:20;;;;;;;;;;;17.40;99.10;;;;;;5066388;28;19919;-75
2022/11/12 14:25:47;;;;;;;;;;;17.30;99.50;;;;;;5062882;28;19920;-75
2022/11/12 14:28:25;;;;;;;;;;;17.20;99.90;;;;;;5061987;28;19924;-75
2022/11/12 14:30:51;;;;;;;;;;;17.30;99.30;;;;;;5047788;28;19912;-75
2022/11/12 14:33:17;;;;;;;;;;;17.20;99.60;;;;;;5064297;28;20351;-76
2022/11/12 14:35:43;;;;;;;;;;;17.10;99.90;;;;;;5067156;28;19912;-75
2022/11/12 14:38:11;;;;;;;;;;;16.90;99.90;;;;;;5065514;28;20879;-75
2022/11/12 14:40:41;;;;;;;;;;;16.80;99.90;;;;;;5067326;28;19997;-75
2022/11/12 14:43:15;;;;;;;;;;;16.70;99.90;;;;;;5057007;28;19924;-75
2022/11/12 14:45:46;;;;;;;;;;;16.80;99.90;;;;;;5067158;28;19920;-75
2022/11/12 14:48:13;;;;;;;;;;;16.90;99.90;;;;;;5066898;28;20466;-75
2022/11/12 14:50:40;;;;;;;;;;;17.00;99.90;;;;;;5067083;28;20394;-75
2022/11/12 14:53:11;;;;;;;;;;;17.00;99.70;;;;;;5061989;28;19917;-75
2022/11/12 14:55:39;;;;;;;;;;;16.90;99.90;;;;;;5057347;28;20035;-75
2022/11/12 14:58:04;;;;;;;;;;;16.90;99.90;;;;;;5065961;28;19916;-75